createdAt,value
2022-09-07T00:02:12.436Z,65.30
2022-09-07T00:04:40.532Z,65.40
2022-09-07T00:07:09.988Z,66.50
2022-09-07T00:09:38.088Z,65.80
2022-09-07T00:12:06.449Z,65.60
2022-09-07T00:14:35.039Z,65.70
2022-09-07T00:17:03.114Z,66.20
2022-09-07T00:19:31.168Z,66.30
2022-09-07T00:21:59.207Z,66.00
2022-09-07T00:24:28.686Z,66.00
2022-09-07T00:26:56.746Z,66.60
2022-09-07T00:29:24.861Z,66.80
2022-09-07T00:31:52.938Z,66.30
2022-09-07T00:34:21.039Z,66.20
2022-09-07T00:36:49.116Z,66.10
2022-09-07T00:39:17.443Z,66.00
2022-09-07T00:41:46.826Z,66.30
2022-09-07T00:45:09.018Z,66.30
2022-09-07T00:47:44.453Z,66.10
2022-09-07T00:50:16.344Z,66.00
2022-09-07T00:52:44.624Z,67.30
2022-09-07T00:55:13.318Z,66.60
2022-09-07T00:57:44.307Z,66.40
2022-09-07T01:00:12.961Z,66.10
2022-09-07T01:02:41.246Z,66.00
2022-09-07T01:05:15.460Z,66.20
2022-09-07T01:07:43.507Z,66.40
2022-09-07T01:10:11.617Z,66.30
2022-09-07T01:12:39.653Z,66.00
2022-09-07T01:15:10.084Z,65.90
2022-09-07T01:17:48.240Z,66.60
2022-09-07T01:20:50.392Z,67.30
2022-09-07T01:23:58.077Z,66.30
2022-09-07T01:26:49.140Z,66.10
2022-09-07T01:29:20.383Z,65.90
2022-09-07T01:31:51.137Z,66.50
2022-09-07T01:34:22.217Z,66.40
2022-09-07T01:36:51.591Z,66.30
2022-09-07T01:39:19.756Z,66.00
2022-09-07T01:41:49.958Z,66.60
2022-09-07T01:44:20.834Z,67.50
2022-09-07T01:46:52.345Z,66.60
2022-09-07T01:49:22.716Z,66.20
2022-09-07T01:51:52.198Z,66.90
2022-09-07T01:54:24.025Z,67.00
2022-09-07T01:56:52.509Z,66.70
2022-09-07T01:59:23.971Z,66.30
2022-09-07T02:01:53.199Z,65.90
2022-09-07T02:04:22.265Z,65.80
2022-09-07T02:06:51.076Z,65.70
2022-09-07T02:09:20.997Z,65.90
2022-09-07T02:11:50.103Z,66.20
2022-09-07T02:14:19.918Z,66.20
2022-09-07T02:16:53.636Z,66.00
2022-09-07T02:19:21.763Z,66.00
2022-09-07T02:21:51.023Z,66.80
2022-09-07T02:24:20.865Z,66.70
2022-09-07T02:26:49.998Z,66.30
2022-09-07T02:29:18.040Z,66.00
2022-09-07T02:31:47.167Z,65.80
2022-09-07T02:34:16.576Z,65.70
2022-09-07T02:36:47.031Z,65.60
2022-09-07T02:39:15.163Z,65.90
2022-09-07T02:41:43.989Z,66.30
2022-09-07T02:44:14.043Z,66.30
2022-09-07T02:46:52.556Z,65.90
2022-09-07T02:49:28.608Z,66.40
2022-09-07T02:51:59.615Z,66.80
2022-09-07T02:54:34.760Z,66.60
2022-09-07T02:57:06.230Z,66.30
2022-09-07T02:59:46.017Z,66.70
2022-09-07T03:02:17.624Z,67.00
2022-09-07T03:04:50.617Z,66.70
2022-09-07T03:07:19.543Z,66.40
2022-09-07T03:09:49.507Z,66.00
2022-09-07T03:12:17.545Z,66.60
2022-09-07T03:14:45.650Z,65.70
2022-09-07T03:17:13.852Z,65.70
2022-09-07T03:19:41.948Z,66.20
2022-09-07T03:22:11.396Z,67.00
2022-09-07T03:24:39.410Z,66.10
2022-09-07T03:27:07.482Z,66.00
2022-09-07T03:29:39.116Z,66.60
2022-09-07T03:32:09.385Z,66.70
2022-09-07T03:34:37.478Z,66.40
2022-09-07T03:37:05.609Z,66.30
2022-09-07T03:39:36.406Z,66.80
2022-09-07T03:42:04.751Z,67.00
2022-09-07T03:44:33.258Z,66.70
2022-09-07T03:47:01.309Z,66.40
2022-09-07T03:49:29.323Z,66.60
2022-09-07T03:51:57.335Z,67.20
2022-09-07T03:54:25.603Z,67.00
2022-09-07T03:56:54.976Z,66.60
2022-09-07T03:59:23.016Z,66.30
2022-09-07T04:01:51.126Z,65.90
2022-09-07T04:04:19.534Z,65.80
2022-09-07T04:06:47.907Z,65.60
2022-09-07T04:09:16.057Z,66.00
2022-09-07T04:11:44.098Z,66.00
2022-09-07T04:14:13.480Z,66.10
2022-09-07T04:16:41.567Z,66.00
2022-09-07T04:19:09.674Z,66.20
2022-09-07T04:21:37.697Z,66.70
2022-09-07T04:24:06.091Z,66.60
2022-09-07T04:26:35.431Z,66.30
2022-09-07T04:29:04.041Z,66.10
2022-09-07T04:31:34.178Z,67.00
2022-09-07T04:34:02.302Z,67.00
2022-09-07T04:36:30.292Z,66.80
2022-09-07T04:39:00.324Z,66.30
2022-09-07T04:41:28.543Z,65.90
2022-09-07T04:43:57.418Z,65.80
2022-09-07T04:46:26.440Z,65.40
2022-09-07T04:48:57.189Z,65.50
2022-09-07T04:51:27.471Z,65.80
2022-09-07T04:53:56.329Z,66.00
2022-09-07T04:56:24.416Z,66.60
2022-09-07T04:58:52.503Z,65.90
2022-09-07T05:01:21.388Z,66.60
2022-09-07T05:03:49.896Z,66.60
2022-09-07T05:06:20.078Z,66.30
2022-09-07T05:08:49.331Z,66.20
2022-09-07T05:11:17.975Z,67.00
2022-09-07T05:13:46.105Z,66.90
2022-09-07T05:16:14.932Z,66.70
2022-09-07T05:18:43.082Z,66.20
2022-09-07T05:21:12.166Z,66.00
2022-09-07T05:23:41.627Z,66.60
2022-09-07T05:26:09.763Z,65.60
2022-09-07T05:28:37.781Z,65.90
2022-09-07T05:36:33.826Z,65.80
2022-09-07T05:39:03.245Z,66.20
2022-09-07T05:41:31.265Z,66.30
2022-09-07T05:46:47.307Z,66.10
2022-09-07T05:49:15.377Z,66.30
2022-09-07T05:51:43.441Z,66.60
2022-09-07T05:54:13.194Z,66.30
2022-09-07T05:56:41.271Z,66.00
2022-09-07T05:59:09.433Z,65.70
2022-09-07T06:01:37.660Z,65.40
2022-09-07T06:04:05.825Z,65.40
2022-09-07T06:06:33.857Z,65.40
2022-09-07T06:09:02.825Z,65.70
2022-09-07T06:11:32.267Z,65.70
2022-09-07T06:14:00.327Z,65.80
2022-09-07T06:16:28.864Z,65.80
2022-09-07T06:18:57.017Z,66.00
2022-09-07T06:21:25.113Z,66.30
2022-09-07T06:23:53.268Z,66.00
2022-09-07T06:26:21.294Z,65.80
2022-09-07T06:28:53.756Z,65.50
2022-09-07T06:31:24.802Z,65.30
2022-09-07T06:33:53.053Z,65.20
2022-09-07T06:36:21.818Z,66.10
2022-09-07T06:38:50.199Z,65.70
2022-09-07T06:44:08.388Z,65.90
2022-09-07T06:49:24.547Z,66.20
2022-09-07T06:51:52.565Z,66.30
2022-09-07T06:57:09.659Z,66.10
2022-09-07T06:59:39.329Z,66.40
2022-09-07T07:02:08.101Z,66.60
2022-09-07T07:04:40.536Z,66.40
2022-09-07T07:07:11.678Z,66.10
2022-09-07T07:09:39.943Z,65.70
2022-09-07T07:12:08.288Z,65.50
2022-09-07T07:14:39.712Z,65.50
2022-09-07T07:17:10.711Z,65.60
2022-09-07T07:19:38.730Z,66.00
2022-09-07T07:24:54.856Z,65.90
2022-09-07T07:27:22.862Z,66.10
2022-09-07T07:29:52.345Z,66.30
2022-09-07T07:32:21.999Z,66.60
2022-09-07T07:34:49.997Z,66.40
2022-09-07T07:37:18.093Z,66.20
2022-09-07T07:42:34.170Z,65.70
2022-09-07T07:47:51.990Z,65.90
2022-09-07T07:50:35.260Z,66.40
2022-09-07T07:55:53.364Z,66.20
2022-09-07T07:58:21.467Z,66.60
2022-09-07T08:00:57.089Z,66.90
2022-09-07T08:03:26.789Z,66.60
2022-09-07T08:05:54.846Z,66.50
2022-09-07T08:08:24.022Z,65.90
2022-09-07T08:10:52.030Z,65.90
2022-09-07T08:13:21.322Z,66.50
2022-09-07T08:15:49.487Z,65.90
2022-09-07T08:18:17.816Z,66.30
2022-09-07T08:20:47.078Z,66.40
2022-09-07T08:23:15.316Z,66.30
2022-09-07T08:25:50.751Z,66.40
2022-09-07T08:28:18.653Z,66.80
2022-09-07T08:30:46.560Z,66.90
2022-09-07T08:33:14.561Z,66.70
2022-09-07T08:35:42.426Z,66.70
2022-09-07T08:38:11.937Z,66.90
2022-09-07T08:40:39.834Z,67.20
2022-09-07T08:43:11.884Z,67.10
2022-09-07T08:45:40.955Z,66.80
2022-09-07T08:48:10.305Z,66.40
2022-09-07T08:50:39.819Z,66.20
2022-09-07T08:53:09.370Z,66.10
2022-09-07T08:55:40.385Z,66.00
2022-09-07T08:58:22.095Z,66.30
2022-09-07T09:06:42.114Z,66.50
2022-09-07T09:09:14.386Z,67.00
2022-09-07T09:11:50.982Z,66.90
2022-09-07T09:14:23.383Z,66.90
2022-09-07T09:16:53.685Z,66.90
2022-09-07T09:19:31.507Z,67.20
2022-09-07T09:22:16.863Z,67.00
2022-09-07T09:24:47.000Z,66.70
2022-09-07T09:27:16.293Z,66.20
2022-09-07T09:29:44.186Z,66.00
2022-09-07T09:32:31.499Z,65.90
2022-09-07T09:35:01.928Z,65.90
2022-09-07T09:37:35.381Z,66.30
2022-09-07T09:40:03.969Z,66.30
2022-09-07T09:42:34.763Z,66.30
2022-09-07T09:45:10.843Z,66.40
2022-09-07T09:47:38.831Z,66.70
2022-09-07T09:50:08.322Z,66.60
2022-09-07T09:52:45.415Z,66.60
2022-09-07T09:55:34.468Z,66.70
2022-09-07T10:04:01.135Z,66.60
2022-09-07T10:06:32.070Z,66.20
2022-09-07T10:09:00.840Z,66.00
2022-09-07T10:14:33.346Z,66.00
2022-09-07T10:17:02.036Z,66.40
2022-09-07T10:19:34.998Z,66.30
2022-09-07T10:22:03.570Z,66.40
2022-09-07T10:24:34.276Z,66.50
2022-09-07T10:27:02.149Z,67.50
2022-09-07T10:29:36.098Z,66.70
2022-09-07T10:32:09.149Z,66.70
2022-09-07T10:34:43.306Z,66.70
2022-09-07T10:37:11.915Z,66.90
2022-09-07T10:39:42.115Z,66.50
2022-09-07T10:42:23.124Z,66.00
2022-09-07T10:44:56.939Z,65.50
2022-09-07T10:47:29.573Z,65.00
2022-09-07T10:52:49.584Z,65.50
2022-09-07T10:55:18.857Z,65.60
2022-09-07T10:57:56.166Z,65.70
2022-09-07T11:00:26.184Z,65.90
2022-09-07T11:06:15.048Z,66.20
2022-09-07T11:14:34.069Z,66.40
2022-09-07T11:17:04.879Z,66.50
2022-09-07T11:19:35.911Z,66.60
2022-09-07T11:22:07.414Z,66.20
2022-09-07T11:24:38.607Z,65.90
2022-09-07T11:27:09.071Z,65.40
2022-09-07T11:29:39.513Z,65.30
2022-09-07T11:32:10.710Z,65.10
2022-09-07T11:34:40.656Z,65.20
2022-09-07T11:37:10.851Z,65.50
2022-09-07T11:39:41.691Z,65.50
2022-09-07T11:42:44.344Z,65.40
2022-09-07T11:45:03.777Z,65.70
2022-09-07T11:47:35.301Z,65.80
2022-09-07T11:50:03.160Z,65.80
2022-09-07T11:52:34.539Z,65.80
2022-09-07T11:55:03.813Z,65.90
2022-09-07T11:57:42.068Z,66.00
2022-09-07T12:00:12.814Z,66.20
2022-09-07T12:03:02.921Z,66.00
2022-09-07T12:05:42.366Z,65.60
2022-09-07T12:08:19.680Z,65.00
2022-09-07T12:11:06.706Z,64.90
2022-09-07T12:14:07.462Z,64.90
2022-09-07T12:16:41.697Z,65.10
2022-09-07T12:19:17.193Z,65.50
2022-09-07T12:21:45.904Z,65.40
2022-09-07T12:24:39.385Z,65.50
2022-09-07T12:27:09.641Z,65.70
2022-09-07T12:29:37.532Z,65.90
2022-09-07T12:32:53.542Z,65.80
2022-09-07T12:34:55.469Z,65.80
2022-09-07T12:37:40.502Z,65.90
2022-09-07T12:40:51.149Z,66.20
2022-09-07T12:43:53.578Z,66.00
2022-09-07T12:46:37.107Z,65.40
2022-09-07T12:49:07.887Z,65.20
2022-09-07T12:54:28.656Z,65.10
2022-09-07T12:59:57.979Z,65.60
2022-09-07T13:02:34.970Z,65.50
2022-09-07T13:05:07.127Z,66.30
2022-09-07T13:07:47.230Z,66.00
2022-09-07T13:10:31.399Z,65.80
2022-09-07T13:13:04.013Z,65.60
2022-09-07T13:15:38.734Z,65.00
2022-09-07T13:18:06.920Z,64.80
2022-09-07T13:20:39.639Z,64.70
2022-09-07T13:23:31.165Z,64.70
2022-09-07T13:26:00.449Z,65.10
2022-09-07T13:28:40.335Z,65.20
2022-09-07T13:31:23.910Z,65.20
2022-09-07T13:33:52.072Z,65.10
2022-09-07T13:36:36.360Z,65.80
2022-09-07T13:39:07.883Z,65.60
2022-09-07T13:41:37.054Z,65.60
2022-09-07T13:44:05.653Z,65.70
2022-09-07T13:46:39.962Z,65.90
2022-09-07T13:49:11.266Z,66.00
2022-09-07T13:51:40.854Z,65.90
2022-09-07T13:54:13.887Z,66.00
2022-09-07T13:56:45.770Z,66.00
2022-09-07T13:59:18.170Z,66.00
2022-09-07T14:01:47.130Z,65.90
2022-09-07T14:04:23.370Z,65.40
2022-09-07T14:06:51.346Z,64.80
2022-09-07T14:09:22.736Z,64.60
2022-09-07T14:11:51.170Z,64.60
2022-09-07T14:14:20.627Z,64.90
2022-09-07T14:16:50.043Z,65.00
2022-09-07T14:19:20.061Z,65.00
2022-09-07T14:21:58.329Z,65.20
2022-09-07T14:24:33.656Z,65.40
2022-09-07T14:27:01.710Z,65.60
2022-09-07T14:29:31.105Z,65.60
2022-09-07T14:31:59.584Z,65.50
2022-09-07T14:34:29.753Z,65.50
2022-09-07T14:36:59.981Z,65.60
2022-09-07T14:39:30.852Z,65.80
2022-09-07T14:41:59.280Z,65.50
2022-09-07T14:44:38.760Z,65.00
2022-09-07T14:47:08.847Z,64.60
2022-09-07T14:49:36.813Z,64.50
2022-09-07T14:52:04.757Z,64.50
2022-09-07T14:54:35.311Z,64.60
2022-09-07T14:57:08.520Z,65.10
2022-09-07T14:59:38.467Z,65.20
2022-09-07T15:02:35.552Z,65.10
2022-09-07T15:05:28.131Z,65.20
2022-09-07T15:07:57.709Z,65.60
2022-09-07T15:10:37.868Z,65.50
2022-09-07T15:13:07.143Z,65.20
2022-09-07T15:15:37.260Z,64.70
2022-09-07T15:18:09.040Z,64.50
2022-09-07T15:20:38.799Z,64.50
2022-09-07T15:23:09.455Z,64.60
2022-09-07T15:25:39.268Z,64.90
2022-09-07T15:28:08.900Z,65.30
2022-09-07T15:30:36.811Z,65.10
2022-09-07T15:33:04.894Z,65.10
2022-09-07T15:35:32.830Z,65.20
2022-09-07T15:38:02.580Z,65.80
2022-09-07T15:40:33.288Z,65.60
2022-09-07T15:43:13.642Z,65.40
2022-09-07T15:45:41.941Z,65.50
2022-09-07T15:48:14.208Z,65.80
2022-09-07T15:50:42.251Z,65.80
2022-09-07T15:54:07.360Z,65.30
2022-09-07T15:55:58.071Z,65.00
2022-09-07T15:58:27.328Z,64.50
2022-09-07T16:03:43.290Z,64.30
2022-09-07T16:06:13.771Z,64.50
2022-09-07T16:08:42.165Z,64.90
2022-09-07T16:11:18.434Z,64.90
2022-09-07T16:13:48.248Z,64.80
2022-09-07T16:16:16.702Z,64.90
2022-09-07T16:18:46.943Z,65.30
2022-09-07T16:21:15.134Z,65.40
2022-09-07T16:23:43.737Z,65.10
2022-09-07T16:26:11.897Z,65.00
2022-09-07T16:28:40.363Z,64.80
2022-09-07T16:31:10.768Z,65.10
2022-09-07T16:33:39.799Z,65.10
2022-09-07T16:36:09.384Z,65.00
2022-09-07T16:38:45.530Z,65.00
2022-09-07T16:41:14.589Z,65.30
2022-09-07T16:43:42.607Z,65.60
2022-09-07T16:46:14.060Z,65.20
2022-09-07T16:48:41.914Z,64.80
2022-09-07T16:51:10.996Z,64.40
2022-09-07T16:53:39.755Z,64.30
2022-09-07T16:56:08.537Z,64.30
2022-09-07T16:58:37.992Z,64.50
2022-09-07T17:01:06.427Z,64.90
2022-09-07T17:03:37.008Z,65.00
2022-09-07T17:06:05.849Z,64.90
2022-09-07T17:08:34.048Z,64.80
2022-09-07T17:11:02.507Z,65.50
2022-09-07T17:13:31.574Z,65.60
2022-09-07T17:16:03.283Z,65.30
2022-09-07T17:21:20.532Z,64.90
2022-09-07T17:23:54.701Z,64.70
2022-09-07T17:26:23.689Z,64.60
2022-09-07T17:28:55.043Z,64.80
2022-09-07T17:34:12.680Z,65.20
2022-09-07T17:36:42.727Z,65.00
2022-09-07T17:39:15.981Z,65.40
2022-09-07T17:41:44.909Z,65.90
2022-09-07T17:47:01.197Z,65.30
2022-09-07T17:49:29.670Z,66.30
2022-09-07T17:52:00.886Z,66.20
2022-09-07T17:54:29.295Z,65.60
2022-09-07T17:56:57.156Z,65.10
2022-09-07T18:02:14.026Z,65.10
2022-09-07T18:04:42.612Z,64.30
2022-09-07T18:07:11.946Z,64.10
2022-09-07T18:09:40.470Z,64.80
2022-09-07T18:12:08.586Z,65.10
2022-09-07T18:14:36.551Z,64.90
2022-09-07T18:17:05.215Z,64.70
2022-09-07T18:19:33.155Z,65.20
2022-09-07T18:22:03.718Z,65.80
2022-09-07T18:24:36.431Z,65.60
2022-09-07T18:27:05.046Z,65.10
2022-09-07T18:29:34.380Z,65.30
2022-09-07T18:32:04.648Z,66.10
2022-09-07T18:34:33.655Z,66.00
2022-09-07T18:37:02.510Z,65.50
2022-09-07T18:39:32.305Z,65.50
2022-09-07T18:42:00.213Z,66.30
2022-09-07T18:47:22.178Z,65.80
2022-09-07T18:49:51.836Z,65.40
2022-09-07T18:55:10.340Z,64.80
2022-09-07T18:57:38.294Z,64.70
2022-09-07T19:00:07.675Z,64.90
2022-09-07T19:02:35.828Z,65.30
2022-09-07T19:07:52.004Z,65.00
2022-09-07T19:10:21.177Z,65.50
2022-09-07T19:12:49.034Z,65.90
2022-09-07T19:15:17.034Z,66.60
2022-09-07T19:17:44.921Z,65.50
2022-09-07T19:20:12.810Z,65.50
2022-09-07T19:22:42.722Z,66.20
2022-09-07T19:25:11.218Z,66.20
2022-09-07T19:27:40.502Z,65.90
2022-09-07T19:30:09.592Z,65.40
2022-09-07T19:32:37.469Z,65.10
2022-09-07T19:35:05.982Z,65.10
2022-09-07T19:37:33.858Z,64.80
2022-09-07T19:40:01.862Z,64.90
2022-09-07T19:42:29.878Z,65.60
2022-09-07T19:44:59.416Z,65.60
2022-09-07T19:47:27.326Z,65.40
2022-09-07T19:49:55.361Z,65.30
2022-09-07T19:52:23.295Z,66.10
2022-09-07T19:54:51.166Z,66.20
2022-09-07T19:57:19.047Z,65.90
2022-09-07T19:59:47.227Z,65.60
2022-09-07T20:02:16.448Z,66.10
2022-09-07T20:04:44.334Z,66.50
2022-09-07T20:07:13.091Z,66.10
2022-09-07T20:09:40.937Z,65.80
2022-09-07T20:12:09.213Z,65.40
2022-09-07T20:14:37.101Z,65.40
2022-09-07T20:17:05.378Z,65.00
2022-09-07T20:19:34.672Z,65.20
2022-09-07T20:22:02.541Z,65.90
2022-09-07T20:24:30.404Z,65.90
2022-09-07T20:26:58.293Z,65.60
2022-09-07T20:29:28.335Z,65.50
2022-09-07T20:31:57.627Z,66.20
2022-09-07T20:34:25.717Z,66.40
2022-09-07T20:36:55.178Z,66.20
2022-09-07T20:39:23.193Z,65.70
2022-09-07T20:41:51.057Z,65.40
2022-09-07T20:44:19.202Z,65.20
2022-09-07T20:46:47.147Z,65.10
2022-09-07T20:49:15.098Z,65.00
2022-09-07T20:51:42.970Z,65.80
2022-09-07T20:54:12.948Z,65.80
2022-09-07T20:56:40.786Z,65.70
2022-09-07T20:59:08.704Z,65.50
2022-09-07T21:01:36.740Z,66.10
2022-09-07T21:04:06.091Z,66.20
2022-09-07T21:06:34.117Z,66.20
2022-09-07T21:09:01.983Z,65.80
2022-09-07T21:11:32.106Z,66.00
2022-09-07T21:14:00.480Z,66.50
2022-09-07T21:16:28.701Z,66.30
2022-09-07T21:18:57.526Z,65.80
2022-09-07T21:21:26.509Z,65.40
2022-09-07T21:23:57.616Z,65.10
2022-09-07T21:26:25.513Z,64.90
2022-09-07T21:28:58.471Z,64.90
2022-09-07T21:31:26.632Z,65.20
2022-09-07T21:33:55.318Z,65.50
2022-09-07T21:36:23.176Z,65.60
2022-09-07T21:38:51.044Z,65.40
2022-09-07T21:41:20.105Z,65.70
2022-09-07T21:43:47.975Z,66.10
2022-09-07T21:46:18.129Z,66.10
2022-09-07T21:48:46.429Z,65.70
2022-09-07T21:51:14.381Z,65.70
2022-09-07T21:53:42.215Z,66.50
2022-09-07T21:56:11.533Z,66.40
2022-09-07T21:58:39.831Z,66.10
2022-09-07T22:01:12.184Z,65.50
2022-09-07T22:03:41.690Z,65.20
2022-09-07T22:06:09.610Z,65.20
2022-09-07T22:08:38.206Z,65.10
2022-09-07T22:11:06.965Z,65.30
2022-09-07T22:13:35.013Z,65.80
2022-09-07T22:16:03.711Z,65.70
2022-09-07T22:18:31.662Z,65.40
2022-09-07T22:21:05.410Z,65.60
2022-09-07T22:23:33.510Z,66.20
2022-09-07T22:26:01.485Z,66.10
2022-09-07T22:28:29.921Z,65.70
2022-09-07T22:30:57.885Z,65.60
2022-09-07T22:33:25.889Z,65.40
2022-09-07T22:35:53.732Z,65.70
2022-09-07T22:38:22.930Z,65.90
2022-09-07T22:40:50.769Z,65.90
2022-09-07T22:43:18.622Z,65.80
2022-09-07T22:45:46.711Z,65.70
2022-09-07T22:48:14.544Z,66.30
2022-09-07T22:50:42.410Z,66.20
2022-09-07T22:53:10.310Z,66.10
2022-09-07T22:55:40.804Z,65.90
2022-09-07T22:58:08.645Z,66.30
2022-09-07T23:00:37.065Z,66.40
2022-09-07T23:03:05.087Z,66.20
2022-09-07T23:05:37.069Z,65.80
2022-09-07T23:08:05.034Z,65.30
2022-09-07T23:10:34.946Z,65.00
2022-09-07T23:13:04.308Z,65.00
2022-09-07T23:15:32.239Z,65.10
2022-09-07T23:18:00.140Z,65.60
2022-09-07T23:20:28.103Z,65.80
2022-09-07T23:22:56.039Z,65.60
2022-09-07T23:25:23.935Z,65.50
2022-09-07T23:27:51.833Z,66.20
2022-09-07T23:30:21.121Z,66.30
2022-09-07T23:32:49.003Z,66.20
2022-09-07T23:35:16.997Z,65.90
2022-09-07T23:37:45.062Z,66.10
2022-09-07T23:40:13.022Z,66.50
2022-09-07T23:42:40.956Z,66.40
2022-09-07T23:45:10.063Z,66.10
2022-09-07T23:47:39.372Z,66.10
2022-09-07T23:50:08.084Z,66.70
2022-09-07T23:52:37.228Z,66.40
2022-09-07T23:55:05.919Z,66.10
2022-09-07T23:57:33.843Z,65.60
